Portada
METAR-TAF:

METAR-TAF

Aeroports :

Aeroport de Tànger Ibn Battuta

Tànger, Marroc

latitud: 35-44N, longitud: 005-54W, altitud: 19 m

Observació

L'informe es va fer fa 38 minuts, a les 16:30 UTC
Vent 7 kt del Oest, variant entre Oest/Sud-Oest i Nord-Oest
Temperatura 21°C
Humitat 69%
Pressió 1014 hPa
Visibilitat 10 km o més
Núvols disperses a una alçada de 1300 ft
Escasses núvols a una alçada de 1600 ft, Cumulus congestus.
Núvols disperses a una alçada de 2000 ft

METAR: GMTT 161630Z 28007KT 250V310 9999 SCT013 FEW016TCU SCT020 21/15 Q1014 NOSIG

Hora: 18:08 (17:08 UTC)

Pronòstic

L'informe es va fer fa 6 hores i 8 minuts, a les 11:00 UTC
Pronòstic vàlid del 16 a les 12 UTC al 17 a les 18 UTC
Vent 6 kt del Oest/Nord-Oest
Visibilitat 10 km o més
Núvols disperses a una alçada de 1600 ft
Núvols disperses a una alçada de 2000 ft

TAF: GMTT 161100Z 1612/1718 30006KT 9999 SCT016 SCT020

Observacions i pronòstics meteorològics de més de 4000 aeroports (METAR i TAF).

Les estacions disponibles són els punts grocs i vermells al mapa.

Posi el ratolí al punt desitjat per veure el nom de l'estació.

Feu clic per veure les observacions i els pronòstics meteorològics.

Per canviar el mapa: feu clic els botons verds amb una creu de color negre per apropar; al botó verd amb un guió per allunyar la imatge; o en les fletxes verdes per a mapes adjacents.


METAR-TAF: